Aviation Digital Data Service (ADDS)

Output produced by TAFs form (0915 UTC 30 May 2017)
found at http://www.aviationweather.gov/adds/tafs/
 
KDEN 300853Z 23010KT 10SM CLR 09/06 A3021 RMK AO2 SLP180 T00940056 58010 $
KDEN 300845Z 3009/3112 21008KT P6SM SKC 
     FM301500 VRB06KT P6SM SKC 
     FM301800 03006KT P6SM FEW070 
     FM302200 06010KT P6SM VCTS SCT070CB BKN120 
     FM310000 13008KT P6SM FEW070 BKN120 
     FM310500 19010KT P6SM FEW100